createdAt,value
2023-02-02T00:00:52.573Z,4.3
2023-02-02T00:01:52.754Z,4.3
2023-02-02T00:02:53.028Z,4.3
2023-02-02T00:03:53.483Z,4.3
2023-02-02T00:04:53.723Z,4.3
2023-02-02T00:05:53.886Z,4.3
2023-02-02T00:06:54.059Z,4.3
2023-02-02T00:07:54.237Z,4.3
2023-02-02T00:08:54.409Z,4.3
2023-02-02T00:09:54.573Z,4.3
2023-02-02T00:10:54.751Z,4.3
2023-02-02T00:11:54.907Z,4.3
2023-02-02T00:12:55.072Z,4.3
2023-02-02T00:13:55.248Z,4.3
2023-02-02T00:14:55.416Z,4.19
2023-02-02T00:15:55.626Z,4.19
2023-02-02T00:16:55.863Z,4.19
2023-02-02T00:17:56.020Z,4.19
2023-02-02T00:18:56.199Z,4.19
2023-02-02T00:19:56.383Z,4.19
2023-02-02T00:20:56.553Z,4.19
2023-02-02T00:21:56.732Z,4.19
2023-02-02T00:22:56.902Z,4.19
2023-02-02T00:23:57.065Z,4.19
2023-02-02T00:24:57.234Z,4.3
2023-02-02T00:25:57.412Z,4.3
2023-02-02T00:26:57.575Z,4.3
2023-02-02T00:27:57.777Z,4.3
2023-02-02T00:28:57.947Z,4.3
2023-02-02T00:29:58.117Z,4.3
2023-02-02T00:30:58.394Z,4.3
2023-02-02T00:31:58.619Z,4.3
2023-02-02T00:32:58.784Z,4.3
2023-02-02T00:33:58.962Z,4.3
2023-02-02T00:34:59.140Z,4.3
2023-02-02T00:35:59.310Z,4.3
2023-02-02T00:36:59.531Z,4.3
2023-02-02T00:37:59.696Z,4.3
2023-02-02T00:38:59.876Z,4.3
2023-02-02T00:40:00.044Z,4.3
2023-02-02T00:41:00.242Z,4.3
2023-02-02T00:42:00.433Z,4.3
2023-02-02T00:43:00.592Z,4.3
2023-02-02T00:44:00.757Z,4.3
2023-02-02T00:45:00.923Z,4.3
2023-02-02T00:46:01.155Z,4.3
2023-02-02T00:47:01.441Z,4.3
2023-02-02T00:48:01.670Z,4.3
2023-02-02T00:49:01.841Z,4.3
2023-02-02T00:50:02.017Z,4.3
2023-02-02T00:51:02.229Z,4.3
2023-02-02T00:52:02.669Z,4.3
2023-02-02T00:53:03.155Z,4.3
2023-02-02T00:54:03.319Z,4.3
2023-02-02T00:55:03.489Z,4.19
2023-02-02T00:56:03.666Z,4.19
2023-02-02T00:57:03.943Z,4.19
2023-02-02T00:58:04.149Z,4.19
2023-02-02T00:59:04.361Z,4.19
2023-02-02T01:00:04.534Z,4.19
2023-02-02T01:01:04.827Z,4.19
2023-02-02T01:02:05.170Z,4.19
2023-02-02T01:03:05.404Z,4.19
2023-02-02T01:04:05.575Z,4.19
2023-02-02T01:05:05.747Z,4.19
2023-02-02T01:06:05.908Z,4.19
2023-02-02T01:07:06.108Z,4.19
2023-02-02T01:08:06.288Z,4.19
2023-02-02T01:09:06.505Z,4.19
2023-02-02T01:10:06.674Z,4.19
2023-02-02T01:11:06.868Z,4.19
2023-02-02T01:12:07.038Z,4.19
2023-02-02T01:13:07.216Z,4.19
2023-02-02T01:14:07.386Z,4.19
2023-02-02T01:15:07.548Z,4.19
2023-02-02T01:16:07.805Z,4.19
2023-02-02T01:17:08.028Z,4.19
2023-02-02T01:18:08.218Z,4.19
2023-02-02T01:19:08.398Z,4.19
2023-02-02T01:20:08.575Z,4.19
2023-02-02T01:21:08.746Z,4.19
2023-02-02T01:22:08.918Z,4.19
2023-02-02T01:23:09.080Z,4.19
2023-02-02T01:24:09.252Z,4.19
2023-02-02T01:25:09.466Z,4.1
2023-02-02T01:26:09.658Z,4.1
2023-02-02T01:27:09.842Z,4.1
2023-02-02T01:28:10.006Z,4.1
2023-02-02T01:29:10.176Z,4.1
2023-02-02T01:30:10.337Z,4.1
2023-02-02T01:31:10.622Z,4.1
2023-02-02T01:32:10.870Z,4.1
2023-02-02T01:33:11.037Z,4.1
2023-02-02T01:34:11.214Z,4.1
2023-02-02T01:35:11.400Z,4.1
2023-02-02T01:36:11.588Z,4.1
2023-02-02T01:37:11.771Z,4.1
2023-02-02T01:38:11.939Z,4.1
2023-02-02T01:39:12.108Z,4.1
2023-02-02T01:40:12.290Z,4.1
2023-02-02T01:41:12.474Z,4.1
2023-02-02T01:42:12.637Z,4.1
2023-02-02T01:43:12.796Z,4.1
2023-02-02T01:44:12.963Z,4.1
2023-02-02T01:45:13.142Z,4.1
2023-02-02T01:46:13.371Z,4.1
2023-02-02T01:47:13.699Z,4.1
2023-02-02T01:48:13.865Z,4.1
2023-02-02T01:49:14.071Z,4.1
2023-02-02T01:50:14.230Z,4.1
2023-02-02T01:51:14.407Z,4.1
2023-02-02T01:52:14.571Z,4.1
2023-02-02T01:53:14.736Z,4.1
2023-02-02T01:54:14.898Z,4
2023-02-02T01:55:15.066Z,4
2023-02-02T01:56:15.225Z,4
2023-02-02T01:57:15.401Z,4
2023-02-02T01:58:15.576Z,4
2023-02-02T01:59:15.749Z,4
2023-02-02T02:00:15.952Z,4
2023-02-02T02:01:16.338Z,4
2023-02-02T02:02:16.649Z,4
2023-02-02T02:03:16.856Z,4
2023-02-02T02:04:17.032Z,4
2023-02-02T02:05:17.217Z,4
2023-02-02T02:06:17.475Z,4
2023-02-02T02:07:17.752Z,4
2023-02-02T02:08:17.918Z,4
2023-02-02T02:09:18.135Z,4
2023-02-02T02:10:18.300Z,4
2023-02-02T02:11:18.465Z,4
2023-02-02T02:12:18.626Z,4
2023-02-02T02:13:18.794Z,4
2023-02-02T02:14:18.966Z,4
2023-02-02T02:15:19.134Z,4
2023-02-02T02:16:19.513Z,4
2023-02-02T02:17:19.845Z,4
2023-02-02T02:18:20.014Z,4
2023-02-02T02:19:20.202Z,4
2023-02-02T02:20:20.372Z,4
2023-02-02T02:21:20.540Z,4
2023-02-02T02:22:20.703Z,4
2023-02-02T02:23:20.879Z,4
2023-02-02T02:24:21.038Z,4
2023-02-02T02:25:21.313Z,4
2023-02-02T02:26:22.430Z,4
2023-02-02T02:27:22.648Z,4
2023-02-02T02:28:22.824Z,4
2023-02-02T02:29:22.991Z,4
2023-02-02T02:30:23.171Z,4
2023-02-02T02:31:23.666Z,4
2023-02-02T02:32:23.986Z,4
2023-02-02T02:33:24.149Z,4
2023-02-02T02:34:24.313Z,3.9
2023-02-02T02:35:25.205Z,3.9
2023-02-02T02:36:26.078Z,3.9
2023-02-02T02:37:26.249Z,3.9
2023-02-02T02:38:26.421Z,3.9
2023-02-02T02:39:26.577Z,3.9
2023-02-02T02:40:26.756Z,3.9
2023-02-02T02:41:26.941Z,3.9
2023-02-02T02:42:27.103Z,3.9
2023-02-02T02:43:27.285Z,3.9
2023-02-02T02:44:27.480Z,3.8
2023-02-02T02:45:27.645Z,3.8
2023-02-02T02:46:27.939Z,3.8
2023-02-02T02:47:28.168Z,3.8
2023-02-02T02:48:28.335Z,3.8
2023-02-02T02:49:28.510Z,3.8
2023-02-02T02:50:28.712Z,3.8
2023-02-02T02:51:28.884Z,3.8
2023-02-02T02:52:29.060Z,3.8
2023-02-02T02:53:29.236Z,3.8
2023-02-02T02:54:29.411Z,3.6
2023-02-02T02:55:29.593Z,3.6
2023-02-02T02:56:29.756Z,3.6
2023-02-02T02:57:29.930Z,3.6
2023-02-02T02:58:30.109Z,3.6
2023-02-02T02:59:30.279Z,3.6
2023-02-02T03:00:30.448Z,3.6
2023-02-02T03:01:30.840Z,3.6
2023-02-02T03:02:31.115Z,3.6
2023-02-02T03:03:31.354Z,3.6
2023-02-02T03:04:31.523Z,3.4
2023-02-02T03:05:31.705Z,3.4
2023-02-02T03:06:31.878Z,3.4
2023-02-02T03:07:32.028Z,3.4
2023-02-02T03:08:32.196Z,3.4
2023-02-02T03:09:32.362Z,3.4
2023-02-02T03:10:32.522Z,3.4
2023-02-02T03:11:32.694Z,3.4
2023-02-02T03:12:32.869Z,3.4
2023-02-02T03:13:33.096Z,3.4
2023-02-02T03:14:33.272Z,3.3
2023-02-02T03:15:33.491Z,3.3
2023-02-02T03:16:33.708Z,3.3
2023-02-02T03:17:33.862Z,3.3
2023-02-02T03:18:34.032Z,3.3
2023-02-02T03:19:34.198Z,3.3
2023-02-02T03:20:34.363Z,3.3
2023-02-02T03:21:34.538Z,3.3
2023-02-02T03:22:34.731Z,3.3
2023-02-02T03:23:34.905Z,3.3
2023-02-02T03:24:35.085Z,3.1
2023-02-02T03:25:35.261Z,3.1
2023-02-02T03:26:35.505Z,3.1
2023-02-02T03:27:35.683Z,3.1
2023-02-02T03:28:35.846Z,3.1
2023-02-02T03:29:36.007Z,3.1
2023-02-02T03:30:36.274Z,3.1
2023-02-02T03:31:36.585Z,3.1
2023-02-02T03:32:36.859Z,3.1
2023-02-02T03:33:37.023Z,3.1
2023-02-02T03:34:37.182Z,3
2023-02-02T03:35:37.365Z,3
2023-02-02T03:36:37.531Z,3
2023-02-02T03:37:37.700Z,3
2023-02-02T03:38:37.863Z,3
2023-02-02T03:39:38.031Z,3
2023-02-02T03:40:38.206Z,3
2023-02-02T03:41:38.380Z,3
2023-02-02T03:42:38.560Z,3
2023-02-02T03:43:38.732Z,3
2023-02-02T03:44:38.893Z,2.9
2023-02-02T03:45:39.061Z,2.9
2023-02-02T03:46:39.311Z,2.9
2023-02-02T03:47:39.550Z,2.9
2023-02-02T03:48:39.718Z,2.9
2023-02-02T03:49:39.887Z,2.9
2023-02-02T03:50:40.063Z,2.9
2023-02-02T03:51:40.228Z,2.9
2023-02-02T03:52:40.398Z,2.9
2023-02-02T03:53:40.576Z,2.9
2023-02-02T03:54:40.780Z,2.8
2023-02-02T03:55:40.955Z,2.8
2023-02-02T03:56:41.126Z,2.8
2023-02-02T03:57:41.344Z,2.8
2023-02-02T03:58:41.525Z,2.8
2023-02-02T03:59:41.706Z,2.8
2023-02-02T04:00:41.864Z,2.8
2023-02-02T04:01:42.143Z,2.8
2023-02-02T04:02:42.529Z,2.8
2023-02-02T04:03:42.788Z,2.8
2023-02-02T04:04:42.979Z,2.7
2023-02-02T04:05:43.168Z,2.7
2023-02-02T04:06:43.351Z,2.7
2023-02-02T04:07:43.557Z,2.7
2023-02-02T04:08:43.707Z,2.7
2023-02-02T04:09:43.890Z,2.7
2023-02-02T04:10:44.069Z,2.7
2023-02-02T04:11:44.291Z,2.7
2023-02-02T04:12:44.469Z,2.7
2023-02-02T04:13:44.652Z,2.7
2023-02-02T04:14:44.828Z,2.7
2023-02-02T04:15:44.989Z,2.7
2023-02-02T04:16:45.143Z,2.7
2023-02-02T04:17:45.319Z,2.7
2023-02-02T04:18:45.513Z,2.7
2023-02-02T04:19:45.717Z,2.7
2023-02-02T04:20:45.873Z,2.7
2023-02-02T04:21:46.058Z,2.7
2023-02-02T04:22:46.227Z,2.7
2023-02-02T04:23:46.403Z,2.7
2023-02-02T04:24:46.590Z,2.7
2023-02-02T04:25:46.759Z,2.7
2023-02-02T04:26:46.969Z,2.7
2023-02-02T04:27:47.244Z,2.7
2023-02-02T04:28:47.408Z,2.7
2023-02-02T04:29:47.578Z,2.7
2023-02-02T04:30:47.883Z,2.7
2023-02-02T04:31:48.190Z,2.7
2023-02-02T04:32:48.430Z,2.7
2023-02-02T04:33:48.600Z,2.7
2023-02-02T04:34:48.797Z,2.7
2023-02-02T04:35:48.965Z,2.7
2023-02-02T04:36:49.145Z,2.7
2023-02-02T04:37:49.405Z,2.7
2023-02-02T04:38:49.591Z,2.7
2023-02-02T04:39:49.775Z,2.7
2023-02-02T04:40:49.944Z,2.7
2023-02-02T04:41:50.130Z,2.7
2023-02-02T04:42:50.296Z,2.7
2023-02-02T04:43:50.500Z,2.7
2023-02-02T04:44:50.685Z,2.7
2023-02-02T04:45:50.968Z,2.7
2023-02-02T04:46:51.203Z,2.7
2023-02-02T04:47:51.560Z,2.7
2023-02-02T04:48:51.747Z,2.7
2023-02-02T04:49:51.931Z,2.7
2023-02-02T04:50:52.121Z,2.7
2023-02-02T04:51:52.307Z,2.7
2023-02-02T04:52:52.493Z,2.7
2023-02-02T04:53:52.664Z,2.7
2023-02-02T04:54:52.837Z,2.7
2023-02-02T04:55:53.020Z,2.7
2023-02-02T04:56:53.211Z,2.7
2023-02-02T04:57:53.389Z,2.7
2023-02-02T04:58:53.565Z,2.7
2023-02-02T04:59:53.747Z,2.7
2023-02-02T05:00:53.997Z,2.7
2023-02-02T05:01:54.250Z,2.7
2023-02-02T05:02:54.436Z,2.7
2023-02-02T05:03:54.618Z,2.7
2023-02-02T05:04:54.799Z,2.7
2023-02-02T05:05:54.983Z,2.7
2023-02-02T05:06:55.175Z,2.7
2023-02-02T05:07:55.348Z,2.7
2023-02-02T05:08:55.545Z,2.7
2023-02-02T05:09:55.728Z,2.7
2023-02-02T05:10:55.901Z,2.7
2023-02-02T05:11:56.087Z,2.7
2023-02-02T05:12:56.270Z,2.7
2023-02-02T05:13:56.442Z,2.7
2023-02-02T05:14:56.616Z,2.7
2023-02-02T05:15:56.799Z,2.7
2023-02-02T05:16:57.100Z,2.7
2023-02-02T05:17:57.442Z,2.7
2023-02-02T05:18:57.619Z,2.7
2023-02-02T05:19:57.792Z,2.7
2023-02-02T05:20:57.965Z,2.7
2023-02-02T05:21:58.145Z,2.7
2023-02-02T05:22:58.315Z,2.7
2023-02-02T05:23:58.481Z,2.7
2023-02-02T05:24:58.656Z,2.7
2023-02-02T05:25:58.831Z,2.7
2023-02-02T05:26:59.143Z,2.7
2023-02-02T05:27:59.349Z,2.7
2023-02-02T05:28:59.524Z,2.7
2023-02-02T05:29:59.713Z,2.7
2023-02-02T05:30:59.978Z,2.7
2023-02-02T05:32:00.429Z,2.7
2023-02-02T05:33:00.830Z,2.7
2023-02-02T05:34:01.017Z,2.7
2023-02-02T05:35:01.181Z,2.8
2023-02-02T05:36:01.352Z,2.8
2023-02-02T05:37:01.562Z,2.8
2023-02-02T05:38:01.734Z,2.8
2023-02-02T05:39:01.903Z,2.8
2023-02-02T05:40:02.068Z,2.8
2023-02-02T05:41:02.255Z,2.8
2023-02-02T05:42:02.523Z,2.8
2023-02-02T05:43:02.692Z,2.8
2023-02-02T05:44:02.857Z,2.8
2023-02-02T05:45:03.036Z,2.8
2023-02-02T05:46:03.352Z,2.8
2023-02-02T05:47:03.576Z,2.8
2023-02-02T05:48:03.775Z,2.8
2023-02-02T05:49:03.956Z,2.8
2023-02-02T05:50:04.161Z,2.8
2023-02-02T05:51:04.367Z,2.8
2023-02-02T05:52:04.535Z,2.8
2023-02-02T05:53:04.704Z,2.8
2023-02-02T05:54:04.905Z,2.8
2023-02-02T05:55:05.111Z,2.9
2023-02-02T05:56:05.327Z,2.9
2023-02-02T05:57:05.505Z,2.9
2023-02-02T05:58:05.687Z,2.9
2023-02-02T05:59:05.867Z,2.9
2023-02-02T06:00:06.053Z,2.9
2023-02-02T06:01:06.236Z,2.9
2023-02-02T06:02:06.549Z,2.9
2023-02-02T06:03:07.004Z,2.9
2023-02-02T06:04:07.570Z,2.9
2023-02-02T06:05:07.847Z,3
2023-02-02T06:06:08.042Z,3
2023-02-02T06:07:08.218Z,3
2023-02-02T06:08:08.398Z,3
2023-02-02T06:09:08.601Z,3
2023-02-02T06:10:08.848Z,3
2023-02-02T06:11:09.033Z,3
2023-02-02T06:12:09.207Z,3
2023-02-02T06:13:09.380Z,3
2023-02-02T06:14:09.603Z,3
2023-02-02T06:15:09.791Z,3
2023-02-02T06:16:10.075Z,3
2023-02-02T06:17:10.278Z,3
2023-02-02T06:18:10.516Z,3
2023-02-02T06:19:10.777Z,3
2023-02-02T06:20:10.974Z,3
2023-02-02T06:21:11.159Z,3
2023-02-02T06:22:11.331Z,3
2023-02-02T06:23:11.507Z,3
2023-02-02T06:24:11.685Z,3.1
2023-02-02T06:25:11.866Z,3.1
2023-02-02T06:26:12.035Z,3.1
2023-02-02T06:27:12.212Z,3.1
2023-02-02T06:28:12.501Z,3.1
2023-02-02T06:29:12.829Z,3.1
2023-02-02T06:30:12.999Z,3.1
2023-02-02T06:31:13.348Z,3.1
2023-02-02T06:32:13.774Z,3.1
2023-02-02T06:33:13.964Z,3.1
2023-02-02T06:34:14.136Z,3.2
2023-02-02T06:35:14.300Z,3.2
2023-02-02T06:36:14.474Z,3.2
2023-02-02T06:37:14.647Z,3.2
2023-02-02T06:38:14.822Z,3.2
2023-02-02T06:39:15.015Z,3.2
2023-02-02T06:40:15.203Z,3.2
2023-02-02T06:41:15.380Z,3.2
2023-02-02T06:42:22.189Z,3.2
2023-02-02T06:43:22.408Z,3.4
2023-02-02T06:44:22.581Z,3.4
2023-02-02T06:45:23.236Z,3.4
2023-02-02T06:46:24.096Z,3.4
2023-02-02T06:47:27.034Z,3.4
2023-02-02T06:48:27.248Z,3.4
2023-02-02T06:49:27.417Z,3.4
2023-02-02T06:50:27.594Z,3.4
2023-02-02T06:51:27.766Z,3.4
2023-02-02T06:52:27.951Z,3.4
2023-02-02T06:53:28.129Z,3.4
2023-02-02T06:54:28.342Z,3.5
2023-02-02T06:55:28.514Z,3.5
2023-02-02T06:56:28.709Z,3.5
2023-02-02T06:57:28.877Z,3.5
2023-02-02T06:58:29.058Z,3.5
2023-02-02T06:59:29.251Z,3.5
2023-02-02T07:00:29.537Z,3.5
2023-02-02T07:01:29.841Z,3.5
2023-02-02T07:02:30.211Z,3.5
2023-02-02T07:03:30.438Z,3.5
2023-02-02T07:04:30.634Z,3.6
2023-02-02T07:05:32.023Z,3.6
2023-02-02T07:06:32.546Z,3.6
2023-02-02T07:07:32.729Z,3.6
2023-02-02T07:08:32.930Z,3.6
2023-02-02T07:09:33.100Z,3.6
2023-02-02T07:11:16.441Z,3.6
2023-02-02T07:12:17.745Z,3.7
2023-02-02T07:13:17.912Z,3.7
2023-02-02T07:14:18.093Z,3.7
2023-02-02T07:15:18.273Z,3.7
2023-02-02T07:16:18.563Z,3.7
2023-02-02T07:17:18.786Z,3.7
2023-02-02T07:18:18.952Z,3.7
2023-02-02T07:19:19.133Z,3.7
2023-02-02T07:20:19.312Z,3.7
2023-02-02T07:21:19.526Z,3.7
2023-02-02T07:22:19.709Z,3.7
2023-02-02T07:23:19.896Z,3.7
2023-02-02T07:24:20.119Z,3.7
2023-02-02T07:25:20.340Z,3.7
2023-02-02T07:26:20.665Z,3.7
2023-02-02T07:27:20.924Z,3.7
2023-02-02T07:28:21.098Z,3.7
2023-02-02T07:29:21.280Z,3.7
2023-02-02T07:30:21.579Z,3.7
2023-02-02T07:31:22.044Z,3.7
2023-02-02T07:32:22.326Z,3.7
2023-02-02T07:33:22.495Z,3.7
2023-02-02T07:34:22.681Z,3.7
2023-02-02T07:35:23.730Z,3.7
2023-02-02T07:36:24.566Z,3.7
2023-02-02T07:37:24.795Z,3.7
2023-02-02T07:38:24.973Z,3.7
2023-02-02T07:39:25.160Z,3.7
2023-02-02T07:40:25.346Z,3.7
2023-02-02T07:41:25.531Z,3.7
2023-02-02T07:42:25.732Z,3.7
2023-02-02T07:43:25.902Z,3.7
2023-02-02T07:44:26.072Z,3.7
2023-02-02T07:45:28.117Z,3.7
2023-02-02T07:46:28.633Z,3.7
2023-02-02T07:47:28.878Z,3.7
2023-02-02T07:48:29.048Z,3.7
2023-02-02T07:49:29.221Z,3.7
2023-02-02T07:50:29.402Z,3.7
2023-02-02T07:51:29.608Z,3.7
2023-02-02T07:52:29.788Z,3.7
2023-02-02T07:53:29.980Z,3.7
2023-02-02T07:54:30.169Z,3.8
2023-02-02T07:55:31.327Z,3.8
2023-02-02T07:56:32.071Z,3.8
2023-02-02T07:57:32.261Z,3.8
2023-02-02T07:58:32.431Z,3.8
2023-02-02T07:59:32.761Z,3.8
2023-02-02T08:00:32.997Z,3.8
2023-02-02T08:01:33.282Z,3.8
2023-02-02T08:02:33.520Z,3.8
2023-02-02T08:03:33.738Z,3.8
2023-02-02T08:04:33.930Z,3.9
2023-02-02T08:05:34.104Z,3.9
2023-02-02T08:06:34.281Z,3.9
2023-02-02T08:07:34.489Z,3.9
2023-02-02T08:08:34.674Z,3.9
2023-02-02T08:09:34.849Z,3.9
2023-02-02T08:10:35.008Z,3.9
2023-02-02T08:11:35.174Z,3.9
2023-02-02T08:12:35.343Z,3.9
2023-02-02T08:13:35.541Z,3.9
2023-02-02T08:14:35.860Z,4
2023-02-02T08:15:36.304Z,4
2023-02-02T08:16:36.649Z,4
2023-02-02T08:17:37.033Z,4
2023-02-02T08:18:37.208Z,4
2023-02-02T08:19:37.454Z,4
2023-02-02T08:20:37.621Z,4
2023-02-02T08:21:37.803Z,4
2023-02-02T08:22:37.975Z,4
2023-02-02T08:23:38.155Z,4
2023-02-02T08:24:38.327Z,4.1
2023-02-02T08:25:38.498Z,4.1
2023-02-02T08:26:38.766Z,4.1
2023-02-02T08:27:39.001Z,4.1
2023-02-02T08:28:39.179Z,4.1
2023-02-02T08:29:39.359Z,4.1
2023-02-02T08:30:39.617Z,4.1
2023-02-02T08:31:39.995Z,4.1
2023-02-02T08:32:40.270Z,4.1
2023-02-02T08:33:40.454Z,4.1
2023-02-02T08:34:40.634Z,4.19
2023-02-02T08:35:40.803Z,4.19
2023-02-02T08:36:40.991Z,4.19
2023-02-02T08:37:41.183Z,4.19
2023-02-02T08:38:41.399Z,4.19
2023-02-02T08:39:41.672Z,4.19
2023-02-02T08:40:41.894Z,4.19
2023-02-02T08:41:42.105Z,4.19
2023-02-02T08:42:42.307Z,4.19
2023-02-02T08:43:42.529Z,4.19
2023-02-02T08:46:04.968Z,4.3
2023-02-02T08:47:06.566Z,4.3
2023-02-02T08:48:12.849Z,4.3
2023-02-02T08:49:13.268Z,4.3
2023-02-02T08:50:13.475Z,4.3
2023-02-02T08:51:13.642Z,4.3
2023-02-02T08:52:13.828Z,4.3
2023-02-02T08:53:14.007Z,4.3
2023-02-02T08:54:14.190Z,4.4
2023-02-02T08:55:14.368Z,4.4
2023-02-02T08:56:14.540Z,4.4
2023-02-02T08:57:14.759Z,4.4
2023-02-02T08:58:14.981Z,4.4
2023-02-02T08:59:15.143Z,4.4
2023-02-02T09:00:15.308Z,4.4
2023-02-02T09:01:15.536Z,4.4
2023-02-02T09:02:15.903Z,4.4
2023-02-02T09:03:16.411Z,4.4
2023-02-02T09:04:16.580Z,4.5
2023-02-02T09:05:16.764Z,4.5
2023-02-02T09:06:16.970Z,4.5
2023-02-02T09:07:17.180Z,4.5
2023-02-02T09:08:17.435Z,4.5
2023-02-02T09:09:17.771Z,4.5
2023-02-02T09:10:17.947Z,4.5
2023-02-02T09:11:18.124Z,4.5
2023-02-02T09:12:18.314Z,4.5
2023-02-02T09:13:18.502Z,4.5
2023-02-02T09:14:18.673Z,4.6
2023-02-02T09:15:18.839Z,4.6
2023-02-02T09:16:19.108Z,4.6
2023-02-02T09:17:19.390Z,4.6
2023-02-02T09:18:19.567Z,4.6
2023-02-02T09:19:19.738Z,4.6
2023-02-02T09:20:20.805Z,4.6
2023-02-02T09:21:21.006Z,4.6
2023-02-02T09:22:21.195Z,4.6
2023-02-02T09:23:21.372Z,4.6
2023-02-02T09:24:21.588Z,4.69
2023-02-02T09:25:21.838Z,4.69
2023-02-02T09:26:22.167Z,4.69
2023-02-02T09:27:22.401Z,4.69
2023-02-02T09:28:22.583Z,4.69
2023-02-02T09:29:22.754Z,4.69
2023-02-02T09:30:22.959Z,4.69
2023-02-02T09:31:23.309Z,4.69
2023-02-02T09:32:23.562Z,4.69
2023-02-02T09:33:23.764Z,4.69
2023-02-02T09:34:23.964Z,4.8
2023-02-02T09:35:24.810Z,4.8
2023-02-02T09:36:25.487Z,4.8
2023-02-02T09:37:25.755Z,4.8
2023-02-02T09:38:25.926Z,4.8
2023-02-02T09:39:26.104Z,4.8
2023-02-02T09:40:26.262Z,4.8
2023-02-02T09:41:26.454Z,4.8
2023-02-02T09:42:26.619Z,4.8
2023-02-02T09:43:26.810Z,4.8
2023-02-02T09:44:26.983Z,4.9
2023-02-02T09:45:27.988Z,4.9
2023-02-02T09:46:28.488Z,4.9
2023-02-02T09:47:28.676Z,4.9
2023-02-02T09:48:28.857Z,4.9
2023-02-02T09:49:29.041Z,4.9
2023-02-02T09:50:29.209Z,4.9
2023-02-02T09:51:29.372Z,4.9
2023-02-02T09:52:29.547Z,4.9
2023-02-02T09:53:29.714Z,4.9
2023-02-02T09:54:29.906Z,5
2023-02-02T09:55:30.079Z,5
2023-02-02T09:56:30.279Z,5
2023-02-02T09:57:30.452Z,5
2023-02-02T09:58:30.636Z,5
2023-02-02T09:59:30.826Z,5
2023-02-02T10:00:31.024Z,5
2023-02-02T10:01:31.322Z,5
2023-02-02T10:02:31.601Z,5
2023-02-02T10:03:31.950Z,5
2023-02-02T10:04:32.243Z,5.1
2023-02-02T10:05:32.438Z,5.1
2023-02-02T10:06:32.648Z,5.1
2023-02-02T10:07:32.831Z,5.1
2023-02-02T10:08:35.623Z,5.1
2023-02-02T10:09:35.981Z,5.1
2023-02-02T10:10:36.164Z,5.1
2023-02-02T10:11:36.375Z,5.1
2023-02-02T10:12:36.586Z,5.1
2023-02-02T10:13:36.762Z,5.1
2023-02-02T10:14:37.003Z,5.2
2023-02-02T10:15:37.377Z,5.2
2023-02-02T10:16:37.706Z,5.2
2023-02-02T10:17:37.887Z,5.2
2023-02-02T10:18:38.076Z,5.2
2023-02-02T10:19:38.267Z,5.2
2023-02-02T10:20:38.453Z,5.2
2023-02-02T10:21:38.614Z,5.2
2023-02-02T10:22:38.794Z,5.2
2023-02-02T10:23:38.969Z,5.2
2023-02-02T10:24:39.180Z,5.3
2023-02-02T10:25:39.383Z,5.3
2023-02-02T10:26:39.696Z,5.3
2023-02-02T10:27:40.116Z,5.3
2023-02-02T10:28:40.291Z,5.3
2023-02-02T10:29:49.584Z,5.3
2023-02-02T10:30:50.029Z,5.3
2023-02-02T10:31:50.814Z,5.3
2023-02-02T10:32:51.286Z,5.3
2023-02-02T10:33:51.453Z,5.3
2023-02-02T10:35:13.725Z,5.4
2023-02-02T10:36:15.176Z,5.4
2023-02-02T10:37:15.357Z,5.4
2023-02-02T10:38:15.543Z,5.4
2023-02-02T10:39:15.747Z,5.4
2023-02-02T10:40:15.958Z,5.4
2023-02-02T10:41:16.158Z,5.4
2023-02-02T10:42:16.382Z,5.4
2023-02-02T10:43:16.571Z,5.4
2023-02-02T10:44:16.760Z,5.5
2023-02-02T10:45:16.950Z,5.5
2023-02-02T10:46:17.364Z,5.5
2023-02-02T10:47:17.724Z,5.5
2023-02-02T10:48:17.932Z,5.5
2023-02-02T10:49:18.189Z,5.5
2023-02-02T10:50:18.499Z,5.5
2023-02-02T10:51:18.985Z,5.5
2023-02-02T10:52:19.188Z,5.5
2023-02-02T10:53:19.366Z,5.5
2023-02-02T10:54:19.558Z,5.7
2023-02-02T10:55:19.765Z,5.7
2023-02-02T10:56:19.934Z,5.7
2023-02-02T10:57:20.109Z,5.7
2023-02-02T10:58:20.303Z,5.7
2023-02-02T10:59:20.496Z,5.7
2023-02-02T11:00:23.521Z,5.7
2023-02-02T11:01:24.210Z,5.9
2023-02-02T11:02:24.494Z,5.9
2023-02-02T11:03:24.706Z,5.9
2023-02-02T11:04:24.882Z,5.9
2023-02-02T11:05:25.096Z,5.9
2023-02-02T11:06:25.268Z,5.9
2023-02-02T11:07:25.463Z,5.9
2023-02-02T11:08:25.628Z,5.9
2023-02-02T11:09:25.795Z,5.9
2023-02-02T11:10:26.529Z,5.9
2023-02-02T11:11:27.968Z,5.9
2023-02-02T11:12:29.715Z,5.9
2023-02-02T11:13:30.138Z,5.9
2023-02-02T11:14:30.349Z,6.1
2023-02-02T11:15:30.585Z,6.1
2023-02-02T11:16:44.351Z,6.1
2023-02-02T11:17:44.958Z,6.2
2023-02-02T11:18:45.164Z,6.2
2023-02-02T11:19:45.335Z,6.2
2023-02-02T11:20:45.524Z,6.2
2023-02-02T11:21:45.702Z,6.2
2023-02-02T11:22:45.878Z,6.2
2023-02-02T11:23:48.919Z,6.2
2023-02-02T11:24:49.111Z,6.3
2023-02-02T11:25:49.288Z,6.3
2023-02-02T11:26:49.566Z,6.3
2023-02-02T11:27:49.922Z,6.3
2023-02-02T11:28:50.215Z,6.3
2023-02-02T11:29:50.424Z,6.3
2023-02-02T11:30:50.872Z,6.3
2023-02-02T11:31:51.396Z,6.3
2023-02-02T11:32:51.632Z,6.3
2023-02-02T11:33:51.828Z,6.3
2023-02-02T11:34:51.996Z,6.4
2023-02-02T11:35:52.183Z,6.4
2023-02-02T11:36:52.347Z,6.4
2023-02-02T11:37:52.511Z,6.4
2023-02-02T11:38:52.699Z,6.4
2023-02-02T11:39:54.086Z,6.4
2023-02-02T11:40:54.278Z,6.4
2023-02-02T11:41:54.528Z,6.4
2023-02-02T11:42:54.714Z,6.4
2023-02-02T11:43:54.910Z,6.4
2023-02-02T11:44:55.078Z,6.5
2023-02-02T11:45:55.259Z,6.5
2023-02-02T11:46:55.510Z,6.5
2023-02-02T11:47:55.739Z,6.5
2023-02-02T11:48:55.943Z,6.5
2023-02-02T11:49:59.632Z,6.5
2023-02-02T11:51:02.019Z,6.6
2023-02-02T11:52:02.335Z,6.6
2023-02-02T11:53:02.504Z,6.6
2023-02-02T11:54:02.675Z,6.6
2023-02-02T11:55:02.850Z,6.7
2023-02-02T11:56:03.095Z,6.7
2023-02-02T11:57:03.261Z,6.7
2023-02-02T11:58:03.455Z,6.7
2023-02-02T11:59:03.638Z,6.7
2023-02-02T12:00:03.839Z,6.7
2023-02-02T12:01:04.043Z,6.7
2023-02-02T12:02:04.322Z,6.7
2023-02-02T12:03:04.571Z,6.7
2023-02-02T12:04:04.841Z,6.7
2023-02-02T12:05:05.195Z,6.9
2023-02-02T12:06:05.382Z,6.9
2023-02-02T12:07:05.551Z,6.9
2023-02-02T12:08:05.769Z,6.9
2023-02-02T12:09:06.010Z,6.9
2023-02-02T12:10:06.191Z,6.9
2023-02-02T12:11:06.413Z,6.9
2023-02-02T12:12:06.629Z,6.9
2023-02-02T12:13:06.861Z,6.9
2023-02-02T12:14:07.039Z,7
2023-02-02T12:15:07.208Z,7
2023-02-02T12:16:09.265Z,7
2023-02-02T12:17:09.605Z,7
2023-02-02T12:18:09.825Z,7
2023-02-02T12:19:10.027Z,7
2023-02-02T12:20:10.212Z,7
2023-02-02T12:21:10.470Z,7
2023-02-02T12:22:11.894Z,7
2023-02-02T12:23:12.503Z,7
2023-02-02T12:24:12.711Z,7
2023-02-02T12:25:12.895Z,7
2023-02-02T12:26:13.069Z,7
2023-02-02T12:27:13.267Z,7
2023-02-02T12:28:13.461Z,7
2023-02-02T12:29:13.652Z,7
2023-02-02T12:30:13.830Z,7
2023-02-02T12:31:14.306Z,7
2023-02-02T12:32:14.790Z,7
2023-02-02T12:33:14.963Z,7
2023-02-02T12:34:15.131Z,7.1
2023-02-02T12:35:15.304Z,7.1
2023-02-02T12:36:15.508Z,7.1
2023-02-02T12:37:15.697Z,7.1
2023-02-02T12:38:15.879Z,7.1
2023-02-02T12:39:16.068Z,7.1
2023-02-02T12:40:16.266Z,7.1
2023-02-02T12:41:16.468Z,7.1
2023-02-02T12:42:16.641Z,7.1
2023-02-02T12:43:16.825Z,7.1
2023-02-02T12:44:17.008Z,7.1
2023-02-02T12:45:17.226Z,7.1
2023-02-02T12:46:17.701Z,7.1
2023-02-02T12:47:17.979Z,7.1
2023-02-02T12:48:18.152Z,7.1
2023-02-02T12:49:18.320Z,7.1
2023-02-02T12:50:18.504Z,7.1
2023-02-02T12:51:18.689Z,7.1
2023-02-02T12:52:18.860Z,7.1
2023-02-02T12:53:19.026Z,7.1
2023-02-02T12:54:43.684Z,7.1
2023-02-02T12:55:58.002Z,7.1
2023-02-02T12:56:58.345Z,7.1
2023-02-02T12:57:58.520Z,7.1
2023-02-02T12:58:58.712Z,7.1
2023-02-02T12:59:58.889Z,7.1
2023-02-02T13:00:59.226Z,7.1
2023-02-02T13:01:59.528Z,7.1
2023-02-02T13:02:59.736Z,7.1
2023-02-02T13:03:59.907Z,7.1
2023-02-02T13:05:00.107Z,7.2
2023-02-02T13:06:00.301Z,7.2
2023-02-02T13:07:00.485Z,7.2
2023-02-02T13:08:00.661Z,7.2
2023-02-02T13:09:00.856Z,7.2
2023-02-02T13:10:01.053Z,7.2
2023-02-02T13:11:01.238Z,7.2
2023-02-02T13:12:01.402Z,7.2
2023-02-02T13:13:01.630Z,7.2
2023-02-02T13:14:01.812Z,7.2
2023-02-02T13:15:01.992Z,7.2
2023-02-02T13:16:02.167Z,7.2
2023-02-02T13:17:02.477Z,7.2
2023-02-02T13:18:02.722Z,7.2
2023-02-02T13:19:02.896Z,7.2
2023-02-02T13:20:03.069Z,7.2
2023-02-02T13:21:03.246Z,7.2
2023-02-02T13:22:03.419Z,7.2
2023-02-02T13:23:03.608Z,7.2
2023-02-02T13:24:05.981Z,7.2
2023-02-02T13:25:06.289Z,7.2
2023-02-02T13:26:06.589Z,7.2
2023-02-02T13:27:06.963Z,7.2
2023-02-02T13:28:07.162Z,7.2
2023-02-02T13:29:07.363Z,7.2
2023-02-02T13:30:07.926Z,7.2
2023-02-02T13:31:08.271Z,7.2
2023-02-02T13:32:08.870Z,7.2
2023-02-02T13:33:09.445Z,7.2
2023-02-02T13:34:09.634Z,7.3
2023-02-02T13:35:09.811Z,7.3
2023-02-02T13:36:09.991Z,7.3
2023-02-02T13:37:10.169Z,7.3
2023-02-02T13:38:10.369Z,7.3
2023-02-02T13:39:10.542Z,7.3
2023-02-02T13:40:10.771Z,7.3
2023-02-02T13:41:10.963Z,7.3
2023-02-02T13:42:11.144Z,7.3
2023-02-02T13:43:11.304Z,7.3
2023-02-02T13:44:11.470Z,7.4
2023-02-02T13:45:11.638Z,7.4
2023-02-02T13:46:12.054Z,7.4
2023-02-02T13:47:12.371Z,7.4
2023-02-02T13:48:12.582Z,7.4
2023-02-02T13:49:12.748Z,7.4
2023-02-02T13:50:12.936Z,7.4
2023-02-02T13:51:13.104Z,7.4
2023-02-02T13:52:13.297Z,7.4
2023-02-02T13:53:13.514Z,7.4
2023-02-02T13:54:13.727Z,7.5
2023-02-02T13:55:13.956Z,7.5
2023-02-02T13:56:14.135Z,7.5
2023-02-02T13:57:14.337Z,7.5
2023-02-02T13:58:14.725Z,7.5
2023-02-02T13:59:14.900Z,7.5